sensor_id;sensor_type;location;lat;lon;timestamp;P1;durP1;ratioP1;P2;durP2;ratioP2
26325;SDS011;14032;52.510;7.342;2022-12-18T00:01:28;87.15;;;36.50;;
26325;SDS011;14032;52.510;7.342;2022-12-18T00:03:58;89.72;;;35.38;;
26325;SDS011;14032;52.510;7.342;2022-12-18T00:06:26;93.32;;;36.08;;
26325;SDS011;14032;52.510;7.342;2022-12-18T00:08:54;82.65;;;33.78;;
26325;SDS011;14032;52.510;7.342;2022-12-18T00:11:21;89.80;;;34.15;;
26325;SDS011;14032;52.510;7.342;2022-12-18T00:13:49;84.97;;;33.88;;
26325;SDS011;14032;52.510;7.342;2022-12-18T00:16:19;92.15;;;35.60;;
26325;SDS011;14032;52.510;7.342;2022-12-18T00:18:51;87.38;;;31.23;;
26325;SDS011;14032;52.510;7.342;2022-12-18T00:21:19;79.03;;;32.22;;
26325;SDS011;14032;52.510;7.342;2022-12-18T00:23:45;95.00;;;35.17;;
26325;SDS011;14032;52.510;7.342;2022-12-18T00:26:16;88.85;;;33.97;;
26325;SDS011;14032;52.510;7.342;2022-12-18T00:28:44;86.68;;;33.58;;
26325;SDS011;14032;52.510;7.342;2022-12-18T00:31:11;91.22;;;34.95;;
26325;SDS011;14032;52.510;7.342;2022-12-18T00:33:39;86.18;;;35.50;;
26325;SDS011;14032;52.510;7.342;2022-12-18T00:38:39;95.47;;;34.35;;
26325;SDS011;14032;52.510;7.342;2022-12-18T00:41:05;86.65;;;34.92;;
26325;SDS011;14032;52.510;7.342;2022-12-18T00:43:32;87.80;;;34.50;;
26325;SDS011;14032;52.510;7.342;2022-12-18T00:45:57;81.88;;;32.45;;
26325;SDS011;14032;52.510;7.342;2022-12-18T00:48:23;78.90;;;33.92;;
26325;SDS011;14032;52.510;7.342;2022-12-18T00:50:49;82.65;;;33.38;;
26325;SDS011;14032;52.510;7.342;2022-12-18T00:53:15;78.45;;;32.50;;
26325;SDS011;14032;52.510;7.342;2022-12-18T00:55:41;91.00;;;36.30;;
26325;SDS011;14032;52.510;7.342;2022-12-18T00:58:08;87.35;;;34.55;;
26325;SDS011;14032;52.510;7.342;2022-12-18T01:00:34;85.80;;;35.95;;
26325;SDS011;14032;52.510;7.342;2022-12-18T01:03:00;80.72;;;33.28;;
26325;SDS011;14032;52.510;7.342;2022-12-18T01:05:26;85.63;;;33.17;;
26325;SDS011;14032;52.510;7.342;2022-12-18T01:07:52;88.45;;;33.83;;
26325;SDS011;14032;52.510;7.342;2022-12-18T01:10:17;85.10;;;34.60;;
26325;SDS011;14032;52.510;7.342;2022-12-18T01:12:43;82.47;;;34.22;;
26325;SDS011;14032;52.510;7.342;2022-12-18T01:15:09;81.63;;;33.20;;
26325;SDS011;14032;52.510;7.342;2022-12-18T01:17:36;82.32;;;33.05;;
26325;SDS011;14032;52.510;7.342;2022-12-18T01:20:02;79.50;;;33.40;;
26325;SDS011;14032;52.510;7.342;2022-12-18T01:22:28;88.00;;;34.53;;
26325;SDS011;14032;52.510;7.342;2022-12-18T01:24:53;76.30;;;32.25;;
26325;SDS011;14032;52.510;7.342;2022-12-18T01:27:19;75.50;;;32.97;;
26325;SDS011;14032;52.510;7.342;2022-12-18T01:29:45;72.50;;;30.42;;
26325;SDS011;14032;52.510;7.342;2022-12-18T01:32:10;65.65;;;28.13;;
26325;SDS011;14032;52.510;7.342;2022-12-18T01:34:36;66.38;;;29.52;;
26325;SDS011;14032;52.510;7.342;2022-12-18T01:37:05;70.03;;;31.15;;
26325;SDS011;14032;52.510;7.342;2022-12-18T01:39:31;63.75;;;28.50;;
26325;SDS011;14032;52.510;7.342;2022-12-18T01:41:58;63.47;;;30.13;;
26325;SDS011;14032;52.510;7.342;2022-12-18T01:50:13;62.00;;;28.38;;
26325;SDS011;14032;52.510;7.342;2022-12-18T01:52:38;64.20;;;29.13;;
26325;SDS011;14032;52.510;7.342;2022-12-18T01:55:07;61.45;;;29.60;;
26325;SDS011;14032;52.510;7.342;2022-12-18T01:57:34;64.85;;;28.55;;
26325;SDS011;14032;52.510;7.342;2022-12-18T02:00:02;66.60;;;29.27;;
26325;SDS011;14032;52.510;7.342;2022-12-18T02:02:31;67.25;;;30.20;;
26325;SDS011;14032;52.510;7.342;2022-12-18T02:04:56;63.47;;;28.75;;
26325;SDS011;14032;52.510;7.342;2022-12-18T02:07:35;58.42;;;28.02;;
26325;SDS011;14032;52.510;7.342;2022-12-18T02:10:35;62.15;;;28.70;;
26325;SDS011;14032;52.510;7.342;2022-12-18T02:13:26;62.67;;;28.13;;
26325;SDS011;14032;52.510;7.342;2022-12-18T02:18:47;65.13;;;28.73;;
26325;SDS011;14032;52.510;7.342;2022-12-18T02:21:28;66.25;;;29.17;;
26325;SDS011;14032;52.510;7.342;2022-12-18T02:26:59;62.47;;;28.95;;
26325;SDS011;14032;52.510;7.342;2022-12-18T02:29:29;59.97;;;28.50;;
26325;SDS011;14032;52.510;7.342;2022-12-18T02:32:18;57.67;;;27.20;;
26325;SDS011;14032;52.510;7.342;2022-12-18T02:34:52;62.83;;;27.85;;
26325;SDS011;14032;52.510;7.342;2022-12-18T02:37:20;59.15;;;26.88;;
26325;SDS011;14032;52.510;7.342;2022-12-18T02:39:49;60.88;;;27.23;;
26325;SDS011;14032;52.510;7.342;2022-12-18T02:42:16;57.00;;;26.65;;
26325;SDS011;14032;52.510;7.342;2022-12-18T02:44:44;57.90;;;26.55;;
26325;SDS011;14032;52.510;7.342;2022-12-18T02:47:11;68.47;;;29.08;;
26325;SDS011;14032;52.510;7.342;2022-12-18T02:55:23;63.08;;;27.13;;
26325;SDS011;14032;52.510;7.342;2022-12-18T02:57:54;56.63;;;26.15;;
26325;SDS011;14032;52.510;7.342;2022-12-18T03:00:31;56.10;;;26.48;;
26325;SDS011;14032;52.510;7.342;2022-12-18T03:05:38;55.38;;;25.80;;
26325;SDS011;14032;52.510;7.342;2022-12-18T03:08:14;58.70;;;26.00;;
26325;SDS011;14032;52.510;7.342;2022-12-18T03:10:48;57.47;;;25.73;;
26325;SDS011;14032;52.510;7.342;2022-12-18T03:13:20;52.22;;;25.88;;
26325;SDS011;14032;52.510;7.342;2022-12-18T03:15:54;53.97;;;25.40;;
26325;SDS011;14032;52.510;7.342;2022-12-18T03:18:24;52.65;;;26.33;;
26325;SDS011;14032;52.510;7.342;2022-12-18T03:20:54;60.85;;;26.58;;
26325;SDS011;14032;52.510;7.342;2022-12-18T03:23:24;61.13;;;28.38;;
26325;SDS011;14032;52.510;7.342;2022-12-18T03:25:54;59.72;;;27.02;;
26325;SDS011;14032;52.510;7.342;2022-12-18T03:28:23;52.75;;;25.83;;
26325;SDS011;14032;52.510;7.342;2022-12-18T03:30:54;60.72;;;27.73;;
26325;SDS011;14032;52.510;7.342;2022-12-18T03:35:52;57.80;;;26.15;;
26325;SDS011;14032;52.510;7.342;2022-12-18T03:38:18;50.92;;;25.27;;
26325;SDS011;14032;52.510;7.342;2022-12-18T03:43:20;51.03;;;25.80;;
26325;SDS011;14032;52.510;7.342;2022-12-18T03:46:02;61.17;;;27.73;;
26325;SDS011;14032;52.510;7.342;2022-12-18T03:48:43;58.85;;;27.45;;
26325;SDS011;14032;52.510;7.342;2022-12-18T03:51:38;58.65;;;26.70;;
26325;SDS011;14032;52.510;7.342;2022-12-18T03:54:06;56.22;;;26.80;;
26325;SDS011;14032;52.510;7.342;2022-12-18T03:56:43;52.95;;;25.30;;
26325;SDS011;14032;52.510;7.342;2022-12-18T03:59:12;50.35;;;25.08;;
26325;SDS011;14032;52.510;7.342;2022-12-18T04:01:42;51.50;;;24.90;;
26325;SDS011;14032;52.510;7.342;2022-12-18T04:04:13;53.15;;;25.00;;
26325;SDS011;14032;52.510;7.342;2022-12-18T04:06:41;51.25;;;24.65;;
26325;SDS011;14032;52.510;7.342;2022-12-18T04:09:08;46.75;;;24.00;;
26325;SDS011;14032;52.510;7.342;2022-12-18T04:11:34;54.65;;;24.88;;
26325;SDS011;14032;52.510;7.342;2022-12-18T04:14:00;51.65;;;25.48;;
26325;SDS011;14032;52.510;7.342;2022-12-18T04:16:26;50.35;;;24.08;;
26325;SDS011;14032;52.510;7.342;2022-12-18T04:18:52;48.22;;;23.90;;
26325;SDS011;14032;52.510;7.342;2022-12-18T04:21:18;53.83;;;24.55;;
26325;SDS011;14032;52.510;7.342;2022-12-18T04:23:44;53.83;;;23.75;;
26325;SDS011;14032;52.510;7.342;2022-12-18T04:26:09;49.65;;;24.50;;
26325;SDS011;14032;52.510;7.342;2022-12-18T04:28:35;45.50;;;23.02;;
26325;SDS011;14032;52.510;7.342;2022-12-18T04:31:01;48.38;;;23.58;;
26325;SDS011;14032;52.510;7.342;2022-12-18T04:33:26;49.13;;;23.42;;
26325;SDS011;14032;52.510;7.342;2022-12-18T04:35:52;48.55;;;22.15;;
26325;SDS011;14032;52.510;7.342;2022-12-18T04:38:18;45.42;;;22.85;;
26325;SDS011;14032;52.510;7.342;2022-12-18T04:40:43;51.45;;;24.17;;
26325;SDS011;14032;52.510;7.342;2022-12-18T04:43:09;45.22;;;23.13;;
26325;SDS011;14032;52.510;7.342;2022-12-18T04:45:34;50.72;;;22.75;;
26325;SDS011;14032;52.510;7.342;2022-12-18T04:48:01;45.10;;;21.38;;
26325;SDS011;14032;52.510;7.342;2022-12-18T04:50:27;48.03;;;22.75;;
26325;SDS011;14032;52.510;7.342;2022-12-18T04:52:53;44.95;;;21.83;;
26325;SDS011;14032;52.510;7.342;2022-12-18T04:55:19;42.85;;;20.60;;
26325;SDS011;14032;52.510;7.342;2022-12-18T04:57:45;43.60;;;21.20;;
26325;SDS011;14032;52.510;7.342;2022-12-18T05:00:11;40.42;;;21.20;;
26325;SDS011;14032;52.510;7.342;2022-12-18T05:02:37;42.80;;;19.58;;
26325;SDS011;14032;52.510;7.342;2022-12-18T05:05:03;37.53;;;19.80;;
26325;SDS011;14032;52.510;7.342;2022-12-18T05:07:29;46.60;;;20.52;;
26325;SDS011;14032;52.510;7.342;2022-12-18T05:09:54;41.25;;;19.25;;
26325;SDS011;14032;52.510;7.342;2022-12-18T05:12:20;36.85;;;18.55;;
26325;SDS011;14032;52.510;7.342;2022-12-18T05:14:45;34.08;;;18.35;;
26325;SDS011;14032;52.510;7.342;2022-12-18T05:17:11;37.00;;;17.98;;
26325;SDS011;14032;52.510;7.342;2022-12-18T05:19:37;32.30;;;16.67;;
26325;SDS011;14032;52.510;7.342;2022-12-18T05:22:02;39.22;;;17.35;;
26325;SDS011;14032;52.510;7.342;2022-12-18T05:24:28;32.40;;;16.40;;
26325;SDS011;14032;52.510;7.342;2022-12-18T05:26:53;32.13;;;16.98;;
26325;SDS011;14032;52.510;7.342;2022-12-18T05:29:19;34.95;;;17.15;;
26325;SDS011;14032;52.510;7.342;2022-12-18T05:31:44;34.42;;;17.73;;
26325;SDS011;14032;52.510;7.342;2022-12-18T05:34:10;34.72;;;17.10;;
26325;SDS011;14032;52.510;7.342;2022-12-18T05:36:36;35.90;;;17.95;;
26325;SDS011;14032;52.510;7.342;2022-12-18T05:39:01;37.20;;;17.08;;
26325;SDS011;14032;52.510;7.342;2022-12-18T05:41:27;29.80;;;15.15;;
26325;SDS011;14032;52.510;7.342;2022-12-18T05:43:53;32.55;;;16.25;;
26325;SDS011;14032;52.510;7.342;2022-12-18T05:46:19;34.00;;;17.13;;
26325;SDS011;14032;52.510;7.342;2022-12-18T05:48:45;28.45;;;15.23;;
26325;SDS011;14032;52.510;7.342;2022-12-18T05:51:12;32.28;;;15.98;;
26325;SDS011;14032;52.510;7.342;2022-12-18T05:53:40;33.92;;;15.35;;
26325;SDS011;14032;52.510;7.342;2022-12-18T05:56:07;27.15;;;15.00;;
26325;SDS011;14032;52.510;7.342;2022-12-18T05:58:35;25.95;;;13.80;;
26325;SDS011;14032;52.510;7.342;2022-12-18T06:03:41;27.00;;;14.25;;
26325;SDS011;14032;52.510;7.342;2022-12-18T06:06:17;27.80;;;14.98;;
26325;SDS011;14032;52.510;7.342;2022-12-18T06:08:43;27.10;;;14.82;;
26325;SDS011;14032;52.510;7.342;2022-12-18T06:11:09;29.80;;;14.95;;
26325;SDS011;14032;52.510;7.342;2022-12-18T06:13:34;27.13;;;14.52;;
26325;SDS011;14032;52.510;7.342;2022-12-18T06:16:06;26.42;;;13.77;;
26325;SDS011;14032;52.510;7.342;2022-12-18T06:18:32;26.63;;;14.57;;
26325;SDS011;14032;52.510;7.342;2022-12-18T06:20:58;29.60;;;13.32;;
26325;SDS011;14032;52.510;7.342;2022-12-18T06:23:24;28.35;;;14.10;;
26325;SDS011;14032;52.510;7.342;2022-12-18T06:25:50;26.42;;;13.52;;
26325;SDS011;14032;52.510;7.342;2022-12-18T06:28:16;25.80;;;13.82;;
26325;SDS011;14032;52.510;7.342;2022-12-18T06:30:45;26.35;;;13.57;;
26325;SDS011;14032;52.510;7.342;2022-12-18T06:33:12;23.98;;;13.10;;
26325;SDS011;14032;52.510;7.342;2022-12-18T06:35:37;26.80;;;12.95;;
26325;SDS011;14032;52.510;7.342;2022-12-18T06:38:03;23.30;;;12.82;;
26325;SDS011;14032;52.510;7.342;2022-12-18T06:40:28;22.15;;;12.80;;
26325;SDS011;14032;52.510;7.342;2022-12-18T06:42:54;24.55;;;13.00;;
26325;SDS011;14032;52.510;7.342;2022-12-18T06:45:20;22.90;;;12.32;;
26325;SDS011;14032;52.510;7.342;2022-12-18T06:47:45;25.52;;;12.82;;
26325;SDS011;14032;52.510;7.342;2022-12-18T06:50:11;21.42;;;11.38;;
26325;SDS011;14032;52.510;7.342;2022-12-18T06:52:37;26.23;;;12.48;;
26325;SDS011;14032;52.510;7.342;2022-12-18T06:55:05;21.48;;;11.63;;
26325;SDS011;14032;52.510;7.342;2022-12-18T06:57:31;22.17;;;11.43;;
26325;SDS011;14032;52.510;7.342;2022-12-18T06:59:57;23.48;;;12.60;;
26325;SDS011;14032;52.510;7.342;2022-12-18T07:02:23;21.65;;;10.90;;
26325;SDS011;14032;52.510;7.342;2022-12-18T07:04:48;24.02;;;10.85;;
26325;SDS011;14032;52.510;7.342;2022-12-18T07:07:14;18.70;;;10.48;;
26325;SDS011;14032;52.510;7.342;2022-12-18T07:09:39;17.73;;;10.77;;
26325;SDS011;14032;52.510;7.342;2022-12-18T07:12:05;20.20;;;9.93;;
26325;SDS011;14032;52.510;7.342;2022-12-18T07:14:31;15.13;;;9.50;;
26325;SDS011;14032;52.510;7.342;2022-12-18T07:16:57;16.15;;;9.70;;
26325;SDS011;14032;52.510;7.342;2022-12-18T07:19:22;19.35;;;10.43;;
26325;SDS011;14032;52.510;7.342;2022-12-18T07:21:49;23.10;;;10.15;;
26325;SDS011;14032;52.510;7.342;2022-12-18T07:24:15;23.20;;;10.48;;
26325;SDS011;14032;52.510;7.342;2022-12-18T07:26:41;16.67;;;9.90;;
26325;SDS011;14032;52.510;7.342;2022-12-18T07:29:06;18.90;;;9.40;;
26325;SDS011;14032;52.510;7.342;2022-12-18T07:31:32;16.73;;;9.75;;
26325;SDS011;14032;52.510;7.342;2022-12-18T07:33:58;19.55;;;9.93;;
26325;SDS011;14032;52.510;7.342;2022-12-18T07:36:23;19.77;;;9.43;;
26325;SDS011;14032;52.510;7.342;2022-12-18T07:38:49;16.73;;;8.68;;
26325;SDS011;14032;52.510;7.342;2022-12-18T07:41:16;17.83;;;9.73;;
26325;SDS011;14032;52.510;7.342;2022-12-18T07:43:43;16.70;;;9.43;;
26325;SDS011;14032;52.510;7.342;2022-12-18T07:46:09;16.15;;;9.65;;
26325;SDS011;14032;52.510;7.342;2022-12-18T07:48:35;18.48;;;9.40;;
26325;SDS011;14032;52.510;7.342;2022-12-18T07:51:01;15.52;;;8.80;;
26325;SDS011;14032;52.510;7.342;2022-12-18T07:53:29;18.17;;;9.95;;
26325;SDS011;14032;52.510;7.342;2022-12-18T07:55:58;17.02;;;9.82;;
26325;SDS011;14032;52.510;7.342;2022-12-18T07:58:25;19.75;;;9.88;;
26325;SDS011;14032;52.510;7.342;2022-12-18T08:00:51;20.90;;;9.95;;
26325;SDS011;14032;52.510;7.342;2022-12-18T08:03:17;20.90;;;12.10;;
26325;SDS011;14032;52.510;7.342;2022-12-18T08:05:43;19.33;;;11.02;;
26325;SDS011;14032;52.510;7.342;2022-12-18T08:08:09;27.55;;;12.50;;
26325;SDS011;14032;52.510;7.342;2022-12-18T08:10:34;16.42;;;9.05;;
26325;SDS011;14032;52.510;7.342;2022-12-18T08:13:00;26.30;;;12.80;;
26325;SDS011;14032;52.510;7.342;2022-12-18T08:15:25;23.52;;;12.27;;
26325;SDS011;14032;52.510;7.342;2022-12-18T08:17:51;20.67;;;10.55;;
26325;SDS011;14032;52.510;7.342;2022-12-18T08:20:16;25.45;;;12.63;;
26325;SDS011;14032;52.510;7.342;2022-12-18T08:22:43;22.00;;;12.07;;
26325;SDS011;14032;52.510;7.342;2022-12-18T08:25:09;18.02;;;10.07;;
26325;SDS011;14032;52.510;7.342;2022-12-18T08:27:35;16.63;;;8.57;;
26325;SDS011;14032;52.510;7.342;2022-12-18T08:30:02;15.70;;;8.77;;
26325;SDS011;14032;52.510;7.342;2022-12-18T08:32:28;15.02;;;8.30;;
26325;SDS011;14032;52.510;7.342;2022-12-18T08:34:54;16.30;;;8.50;;
26325;SDS011;14032;52.510;7.342;2022-12-18T08:37:19;17.35;;;7.72;;
26325;SDS011;14032;52.510;7.342;2022-12-18T08:39:46;14.45;;;7.70;;
26325;SDS011;14032;52.510;7.342;2022-12-18T08:42:12;18.55;;;8.45;;
26325;SDS011;14032;52.510;7.342;2022-12-18T08:44:56;18.95;;;9.90;;
26325;SDS011;14032;52.510;7.342;2022-12-18T08:47:21;17.40;;;8.98;;
26325;SDS011;14032;52.510;7.342;2022-12-18T08:49:47;20.80;;;10.57;;
26325;SDS011;14032;52.510;7.342;2022-12-18T08:52:14;15.93;;;8.35;;
26325;SDS011;14032;52.510;7.342;2022-12-18T08:54:40;13.90;;;7.90;;
26325;SDS011;14032;52.510;7.342;2022-12-18T08:57:05;15.13;;;7.90;;
26325;SDS011;14032;52.510;7.342;2022-12-18T08:59:31;17.58;;;9.00;;
26325;SDS011;14032;52.510;7.342;2022-12-18T09:01:57;17.35;;;8.70;;
26325;SDS011;14032;52.510;7.342;2022-12-18T09:04:22;17.90;;;9.63;;
26325;SDS011;14032;52.510;7.342;2022-12-18T09:06:48;34.65;;;19.50;;
26325;SDS011;14032;52.510;7.342;2022-12-18T09:09:13;21.63;;;12.50;;
26325;SDS011;14032;52.510;7.342;2022-12-18T09:11:39;19.00;;;10.48;;
26325;SDS011;14032;52.510;7.342;2022-12-18T09:14:05;15.13;;;9.07;;
26325;SDS011;14032;52.510;7.342;2022-12-18T09:16:30;14.90;;;8.73;;
26325;SDS011;14032;52.510;7.342;2022-12-18T09:18:57;16.30;;;8.60;;
26325;SDS011;14032;52.510;7.342;2022-12-18T09:21:27;15.38;;;9.07;;
26325;SDS011;14032;52.510;7.342;2022-12-18T09:23:55;18.63;;;8.63;;
26325;SDS011;14032;52.510;7.342;2022-12-18T09:26:22;14.25;;;7.85;;
26325;SDS011;14032;52.510;7.342;2022-12-18T09:28:49;15.45;;;8.60;;
26325;SDS011;14032;52.510;7.342;2022-12-18T09:31:15;22.20;;;9.23;;
26325;SDS011;14032;52.510;7.342;2022-12-18T09:33:42;18.88;;;8.30;;
26325;SDS011;14032;52.510;7.342;2022-12-18T09:36:08;18.75;;;9.40;;
26325;SDS011;14032;52.510;7.342;2022-12-18T09:38:35;15.73;;;9.55;;
26325;SDS011;14032;52.510;7.342;2022-12-18T09:41:13;14.65;;;7.93;;
26325;SDS011;14032;52.510;7.342;2022-12-18T09:44:01;16.42;;;9.60;;
26325;SDS011;14032;52.510;7.342;2022-12-18T09:46:44;17.75;;;9.15;;
26325;SDS011;14032;52.510;7.342;2022-12-18T09:49:17;18.55;;;9.07;;
26325;SDS011;14032;52.510;7.342;2022-12-18T09:51:50;18.95;;;9.57;;
26325;SDS011;14032;52.510;7.342;2022-12-18T09:54:24;18.38;;;10.10;;
26325;SDS011;14032;52.510;7.342;2022-12-18T09:56:55;21.50;;;10.48;;
26325;SDS011;14032;52.510;7.342;2022-12-18T09:59:25;17.10;;;9.38;;
26325;SDS011;14032;52.510;7.342;2022-12-18T10:01:56;17.77;;;10.32;;
26325;SDS011;14032;52.510;7.342;2022-12-18T10:04:21;20.00;;;10.63;;
26325;SDS011;14032;52.510;7.342;2022-12-18T10:09:31;20.08;;;11.43;;
26325;SDS011;14032;52.510;7.342;2022-12-18T10:12:13;21.40;;;10.20;;
26325;SDS011;14032;52.510;7.342;2022-12-18T10:17:46;17.83;;;9.43;;
26325;SDS011;14032;52.510;7.342;2022-12-18T10:20:39;19.50;;;9.50;;
26325;SDS011;14032;52.510;7.342;2022-12-18T10:23:18;17.67;;;9.45;;
26325;SDS011;14032;52.510;7.342;2022-12-18T10:26:08;21.35;;;9.85;;
26325;SDS011;14032;52.510;7.342;2022-12-18T10:28:37;17.60;;;9.50;;
26325;SDS011;14032;52.510;7.342;2022-12-18T10:31:18;16.92;;;9.68;;
26325;SDS011;14032;52.510;7.342;2022-12-18T10:33:46;17.50;;;9.75;;
26325;SDS011;14032;52.510;7.342;2022-12-18T10:36:12;15.57;;;9.40;;
26325;SDS011;14032;52.510;7.342;2022-12-18T10:38:38;17.48;;;9.35;;
26325;SDS011;14032;52.510;7.342;2022-12-18T10:43:42;18.98;;;10.13;;
26325;SDS011;14032;52.510;7.342;2022-12-18T10:48:34;17.75;;;9.68;;
26325;SDS011;14032;52.510;7.342;2022-12-18T10:51:04;19.90;;;9.73;;
26325;SDS011;14032;52.510;7.342;2022-12-18T10:53:32;20.33;;;9.95;;
26325;SDS011;14032;52.510;7.342;2022-12-18T10:55:59;18.80;;;10.82;;
26325;SDS011;14032;52.510;7.342;2022-12-18T10:58:36;18.48;;;9.68;;
26325;SDS011;14032;52.510;7.342;2022-12-18T11:03:35;20.00;;;9.70;;
26325;SDS011;14032;52.510;7.342;2022-12-18T11:06:23;22.75;;;10.65;;
26325;SDS011;14032;52.510;7.342;2022-12-18T11:09:07;19.55;;;10.65;;
26325;SDS011;14032;52.510;7.342;2022-12-18T11:11:48;20.08;;;9.55;;
26325;SDS011;14032;52.510;7.342;2022-12-18T11:14:18;23.80;;;10.52;;
26325;SDS011;14032;52.510;7.342;2022-12-18T11:16:51;17.48;;;10.20;;
26325;SDS011;14032;52.510;7.342;2022-12-18T11:19:26;18.95;;;9.77;;
26325;SDS011;14032;52.510;7.342;2022-12-18T11:22:03;20.48;;;10.98;;
26325;SDS011;14032;52.510;7.342;2022-12-18T11:24:54;20.33;;;10.63;;
26325;SDS011;14032;52.510;7.342;2022-12-18T11:27:31;24.00;;;11.05;;
26325;SDS011;14032;52.510;7.342;2022-12-18T11:30:20;19.38;;;10.68;;
26325;SDS011;14032;52.510;7.342;2022-12-18T11:32:47;18.70;;;11.02;;
26325;SDS011;14032;52.510;7.342;2022-12-18T11:35:51;21.52;;;11.57;;
26325;SDS011;14032;52.510;7.342;2022-12-18T11:38:24;18.80;;;10.73;;
26325;SDS011;14032;52.510;7.342;2022-12-18T11:46:32;19.33;;;10.65;;
26325;SDS011;14032;52.510;7.342;2022-12-18T11:49:12;20.30;;;10.45;;
26325;SDS011;14032;52.510;7.342;2022-12-18T11:51:50;24.35;;;12.05;;
26325;SDS011;14032;52.510;7.342;2022-12-18T11:54:25;24.58;;;11.60;;
26325;SDS011;14032;52.510;7.342;2022-12-18T12:05:24;20.58;;;12.05;;
26325;SDS011;14032;52.510;7.342;2022-12-18T12:10:36;24.08;;;12.02;;
26325;SDS011;14032;52.510;7.342;2022-12-18T12:13:23;24.88;;;13.98;;
26325;SDS011;14032;52.510;7.342;2022-12-18T12:16:17;22.38;;;11.75;;
26325;SDS011;14032;52.510;7.342;2022-12-18T12:21:48;22.50;;;12.70;;
26325;SDS011;14032;52.510;7.342;2022-12-18T12:24:26;24.05;;;12.73;;
26325;SDS011;14032;52.510;7.342;2022-12-18T12:27:20;20.35;;;11.55;;
26325;SDS011;14032;52.510;7.342;2022-12-18T12:30:03;27.10;;;13.60;;
26325;SDS011;14032;52.510;7.342;2022-12-18T12:32:50;24.65;;;12.95;;
26325;SDS011;14032;52.510;7.342;2022-12-18T12:35:36;25.38;;;12.95;;
26325;SDS011;14032;52.510;7.342;2022-12-18T12:38:27;21.48;;;12.10;;
26325;SDS011;14032;52.510;7.342;2022-12-18T12:41:12;21.95;;;12.23;;
26325;SDS011;14032;52.510;7.342;2022-12-18T12:44:01;25.23;;;13.43;;
26325;SDS011;14032;52.510;7.342;2022-12-18T12:46:31;23.83;;;13.23;;
26325;SDS011;14032;52.510;7.342;2022-12-18T12:49:01;23.85;;;13.07;;
26325;SDS011;14032;52.510;7.342;2022-12-18T12:51:34;24.67;;;12.55;;
26325;SDS011;14032;52.510;7.342;2022-12-18T12:54:03;27.00;;;13.85;;
26325;SDS011;14032;52.510;7.342;2022-12-18T12:56:49;23.05;;;13.43;;
26325;SDS011;14032;52.510;7.342;2022-12-18T12:59:26;21.27;;;13.52;;
26325;SDS011;14032;52.510;7.342;2022-12-18T13:15:23;23.33;;;13.65;;
26325;SDS011;14032;52.510;7.342;2022-12-18T13:20:34;23.40;;;14.05;;
26325;SDS011;14032;52.510;7.342;2022-12-18T13:23:17;24.48;;;14.45;;
26325;SDS011;14032;52.510;7.342;2022-12-18T13:31:11;25.33;;;14.15;;
26325;SDS011;14032;52.510;7.342;2022-12-18T13:33:39;27.48;;;14.45;;
26325;SDS011;14032;52.510;7.342;2022-12-18T13:38:41;25.37;;;14.63;;
26325;SDS011;14032;52.510;7.342;2022-12-18T13:43:51;24.17;;;14.10;;
26325;SDS011;14032;52.510;7.342;2022-12-18T13:46:23;27.73;;;14.75;;
26325;SDS011;14032;52.510;7.342;2022-12-18T13:48:50;22.65;;;14.63;;
26325;SDS011;14032;52.510;7.342;2022-12-18T13:51:22;25.58;;;14.52;;
26325;SDS011;14032;52.510;7.342;2022-12-18T13:53:51;24.83;;;14.50;;
26325;SDS011;14032;52.510;7.342;2022-12-18T13:56:17;24.45;;;14.45;;
26325;SDS011;14032;52.510;7.342;2022-12-18T13:58:50;23.05;;;13.45;;
26325;SDS011;14032;52.510;7.342;2022-12-18T14:04:23;25.90;;;14.10;;
26325;SDS011;14032;52.510;7.342;2022-12-18T14:06:57;28.67;;;14.77;;
26325;SDS011;14032;52.510;7.342;2022-12-18T14:09:40;24.45;;;13.07;;
26325;SDS011;14032;52.510;7.342;2022-12-18T14:12:14;27.48;;;14.27;;
26325;SDS011;14032;52.510;7.342;2022-12-18T14:15:05;28.02;;;14.50;;
26325;SDS011;14032;52.510;7.342;2022-12-18T14:17:45;24.67;;;13.32;;
26325;SDS011;14032;52.510;7.342;2022-12-18T14:20:13;24.88;;;13.65;;
26325;SDS011;14032;52.510;7.342;2022-12-18T14:22:42;26.35;;;13.77;;
26325;SDS011;14032;52.510;7.342;2022-12-18T14:27:37;23.70;;;13.95;;
26325;SDS011;14032;52.510;7.342;2022-12-18T14:30:22;24.83;;;13.30;;
26325;SDS011;14032;52.510;7.342;2022-12-18T14:35:58;26.67;;;13.63;;
26325;SDS011;14032;52.510;7.342;2022-12-18T14:38:28;23.23;;;13.77;;
26325;SDS011;14032;52.510;7.342;2022-12-18T14:41:03;21.45;;;12.77;;
26325;SDS011;14032;52.510;7.342;2022-12-18T14:43:32;23.50;;;13.52;;
26325;SDS011;14032;52.510;7.342;2022-12-18T14:46:01;28.60;;;13.30;;
26325;SDS011;14032;52.510;7.342;2022-12-18T14:51:05;25.70;;;13.63;;
26325;SDS011;14032;52.510;7.342;2022-12-18T14:53:42;25.20;;;13.50;;
26325;SDS011;14032;52.510;7.342;2022-12-18T14:56:20;22.05;;;12.52;;
26325;SDS011;14032;52.510;7.342;2022-12-18T14:58:46;28.73;;;12.55;;
26325;SDS011;14032;52.510;7.342;2022-12-18T15:01:18;21.92;;;12.98;;
26325;SDS011;14032;52.510;7.342;2022-12-18T15:03:45;22.33;;;12.52;;
26325;SDS011;14032;52.510;7.342;2022-12-18T15:06:21;22.02;;;12.60;;
26325;SDS011;14032;52.510;7.342;2022-12-18T15:08:51;20.60;;;12.15;;
26325;SDS011;14032;52.510;7.342;2022-12-18T15:11:25;20.63;;;12.80;;
26325;SDS011;14032;52.510;7.342;2022-12-18T15:13:53;22.40;;;12.30;;
26325;SDS011;14032;52.510;7.342;2022-12-18T15:16:19;21.90;;;12.57;;
26325;SDS011;14032;52.510;7.342;2022-12-18T15:18:45;19.42;;;11.75;;
26325;SDS011;14032;52.510;7.342;2022-12-18T15:21:18;21.23;;;11.85;;
26325;SDS011;14032;52.510;7.342;2022-12-18T15:23:48;21.42;;;11.65;;
26325;SDS011;14032;52.510;7.342;2022-12-18T15:26:19;17.88;;;10.98;;
26325;SDS011;14032;52.510;7.342;2022-12-18T15:28:50;17.90;;;10.68;;
26325;SDS011;14032;52.510;7.342;2022-12-18T15:36:17;20.05;;;9.98;;
26325;SDS011;14032;52.510;7.342;2022-12-18T15:38:47;18.52;;;10.40;;
26325;SDS011;14032;52.510;7.342;2022-12-18T15:41:18;16.15;;;9.25;;
26325;SDS011;14032;52.510;7.342;2022-12-18T15:43:46;18.25;;;10.65;;
26325;SDS011;14032;52.510;7.342;2022-12-18T15:48:48;15.90;;;10.02;;
26325;SDS011;14032;52.510;7.342;2022-12-18T15:51:16;18.13;;;10.00;;
26325;SDS011;14032;52.510;7.342;2022-12-18T15:53:42;16.40;;;10.13;;
26325;SDS011;14032;52.510;7.342;2022-12-18T15:56:10;17.73;;;10.23;;
26325;SDS011;14032;52.510;7.342;2022-12-18T15:58:54;24.70;;;10.57;;
26325;SDS011;14032;52.510;7.342;2022-12-18T16:01:20;17.27;;;10.50;;
26325;SDS011;14032;52.510;7.342;2022-12-18T16:03:48;16.15;;;9.98;;
26325;SDS011;14032;52.510;7.342;2022-12-18T16:06:14;19.83;;;9.35;;
26325;SDS011;14032;52.510;7.342;2022-12-18T16:08:39;17.10;;;9.48;;
26325;SDS011;14032;52.510;7.342;2022-12-18T16:11:05;15.88;;;9.82;;
26325;SDS011;14032;52.510;7.342;2022-12-18T16:13:33;18.38;;;8.77;;
26325;SDS011;14032;52.510;7.342;2022-12-18T16:15:59;18.77;;;9.93;;
26325;SDS011;14032;52.510;7.342;2022-12-18T16:18:25;16.05;;;9.20;;
26325;SDS011;14032;52.510;7.342;2022-12-18T16:20:50;14.80;;;9.35;;
26325;SDS011;14032;52.510;7.342;2022-12-18T16:23:16;16.83;;;9.23;;
26325;SDS011;14032;52.510;7.342;2022-12-18T16:25:41;17.48;;;9.50;;
26325;SDS011;14032;52.510;7.342;2022-12-18T16:28:07;18.50;;;9.70;;